createdAt,value
2019-06-08T00:01:18.432Z,99.90
2019-06-08T00:03:47.328Z,99.90
2019-06-08T00:06:16.750Z,99.90
2019-06-08T00:08:45.315Z,99.90
2019-06-08T00:11:14.988Z,99.90
2019-06-08T00:13:43.644Z,99.90
2019-06-08T00:16:13.212Z,99.90
2019-06-08T00:18:41.832Z,99.90
2019-06-08T00:21:10.383Z,99.90
2019-06-08T00:23:38.847Z,99.90
2019-06-08T00:26:07.404Z,99.90
2019-06-08T00:28:35.939Z,99.90
2019-06-08T00:31:04.496Z,99.90
2019-06-08T00:33:33.024Z,99.90
2019-06-08T00:36:01.588Z,99.90
2019-06-08T00:38:30.116Z,99.90
2019-06-08T00:40:58.934Z,99.90
2019-06-08T00:43:27.524Z,99.90
2019-06-08T00:45:56.424Z,99.90
2019-06-08T00:48:24.961Z,99.90
2019-06-08T00:50:53.521Z,99.90
2019-06-08T00:53:23.209Z,99.90
2019-06-08T00:55:52.089Z,99.90
2019-06-08T00:58:21.914Z,99.90
2019-06-08T01:00:50.573Z,99.90
2019-06-08T01:03:19.589Z,99.90
2019-06-08T01:05:48.263Z,99.90
2019-06-08T01:08:16.885Z,99.90
2019-06-08T01:10:45.823Z,99.90
2019-06-08T01:13:14.423Z,99.90
2019-06-08T01:15:42.947Z,99.90
2019-06-08T01:18:11.427Z,99.90
2019-06-08T01:20:39.884Z,99.90
2019-06-08T01:23:08.435Z,99.90
2019-06-08T01:25:36.968Z,99.90
2019-06-08T01:28:05.665Z,99.90
2019-06-08T01:30:34.616Z,99.90
2019-06-08T01:33:03.233Z,99.90
2019-06-08T01:35:31.899Z,99.90
2019-06-08T01:38:00.388Z,99.90
2019-06-08T01:40:29.520Z,99.90
2019-06-08T01:42:58.224Z,99.90
2019-06-08T01:45:33.203Z,99.90
2019-06-08T01:48:18.629Z,99.90
2019-06-08T01:50:34.411Z,99.90
2019-06-08T01:53:03.032Z,99.90
2019-06-08T01:55:31.568Z,99.90
2019-06-08T01:58:00.119Z,99.90
2019-06-08T02:00:30.605Z,99.90
2019-06-08T02:02:59.292Z,99.90
2019-06-08T02:05:28.187Z,99.90
2019-06-08T02:07:56.912Z,99.90
2019-06-08T02:10:26.633Z,99.90
2019-06-08T02:12:55.253Z,99.90
2019-06-08T02:15:25.189Z,99.90
2019-06-08T02:17:53.781Z,99.90
2019-06-08T02:20:22.452Z,99.90
2019-06-08T02:22:51.078Z,99.90
2019-06-08T02:25:22.691Z,99.90
2019-06-08T02:27:51.608Z,99.90
2019-06-08T02:30:21.026Z,99.90
2019-06-08T02:32:49.574Z,99.90
2019-06-08T02:35:18.163Z,99.90
2019-06-08T02:37:46.722Z,99.90
2019-06-08T02:40:15.684Z,99.90
2019-06-08T02:42:44.173Z,99.90
2019-06-08T02:45:13.637Z,99.90
2019-06-08T02:47:42.124Z,99.90
2019-06-08T02:50:11.405Z,99.90
2019-06-08T02:52:42.568Z,99.90
2019-06-08T02:55:11.627Z,99.90
2019-06-08T02:57:42.510Z,99.90
2019-06-08T03:00:12.912Z,99.90
2019-06-08T03:02:47.252Z,99.90
2019-06-08T03:05:16.136Z,99.90
2019-06-08T03:07:47.763Z,99.90
2019-06-08T03:10:16.631Z,99.90
2019-06-08T03:12:45.885Z,99.90
2019-06-08T03:15:17.526Z,99.90
2019-06-08T03:17:46.044Z,99.90
2019-06-08T03:20:15.112Z,99.90
2019-06-08T03:22:44.131Z,99.90
2019-06-08T03:25:12.967Z,99.90
2019-06-08T03:27:43.236Z,99.90
2019-06-08T03:30:17.659Z,99.90
2019-06-08T03:32:50.569Z,99.90
2019-06-08T03:35:13.424Z,99.90
2019-06-08T03:37:44.235Z,99.90
2019-06-08T03:40:13.236Z,99.90
2019-06-08T03:42:42.032Z,99.90
2019-06-08T03:45:10.688Z,99.90
2019-06-08T03:47:41.317Z,99.90
2019-06-08T03:50:09.836Z,99.90
2019-06-08T03:52:39.866Z,99.90
2019-06-08T03:55:08.907Z,99.90
2019-06-08T03:57:38.258Z,99.90
2019-06-08T04:00:13.244Z,99.90
2019-06-08T04:02:39.844Z,99.90
2019-06-08T04:05:09.693Z,99.90
2019-06-08T04:07:39.632Z,99.90
2019-06-08T04:10:08.520Z,99.90
2019-06-08T04:12:37.784Z,99.90
2019-06-08T04:15:08.329Z,99.90
2019-06-08T04:17:37.918Z,99.90
2019-06-08T04:20:11.577Z,99.90
2019-06-08T04:22:42.128Z,99.90
2019-06-08T04:25:11.369Z,99.90
2019-06-08T04:27:40.419Z,99.90
2019-06-08T04:30:10.069Z,99.90
2019-06-08T04:32:38.666Z,99.90
2019-06-08T04:35:08.552Z,99.90
2019-06-08T04:37:38.210Z,99.90
2019-06-08T04:40:07.949Z,99.90
2019-06-08T04:42:37.309Z,99.90
2019-06-08T04:45:08.470Z,99.90
2019-06-08T04:47:38.388Z,99.90
2019-06-08T04:50:21.501Z,99.90
2019-06-08T04:52:39.015Z,99.90
2019-06-08T04:55:08.475Z,99.90
2019-06-08T04:57:39.277Z,99.90
2019-06-08T05:00:12.677Z,99.90
2019-06-08T05:02:42.190Z,99.90
2019-06-08T05:05:11.448Z,99.90
2019-06-08T05:07:41.532Z,99.90
2019-06-08T05:10:10.448Z,99.90
2019-06-08T05:12:39.261Z,99.90
2019-06-08T05:15:09.667Z,99.90
2019-06-08T05:17:39.350Z,99.90
2019-06-08T05:20:08.383Z,99.90
2019-06-08T05:22:36.836Z,99.90
2019-06-08T05:25:06.463Z,99.90
2019-06-08T05:27:34.986Z,99.90
2019-06-08T05:30:08.464Z,99.90
2019-06-08T05:32:34.463Z,99.90
2019-06-08T05:35:03.712Z,99.90
2019-06-08T05:37:32.162Z,99.90
2019-06-08T05:40:00.611Z,99.90
2019-06-08T05:42:29.087Z,99.90
2019-06-08T05:44:57.543Z,99.90
2019-06-08T05:47:26.376Z,99.90
2019-06-08T05:49:54.826Z,99.90
2019-06-08T05:52:23.312Z,99.90
2019-06-08T05:54:51.763Z,99.90
2019-06-08T05:57:20.316Z,99.90
2019-06-08T05:59:50.205Z,99.90
2019-06-08T06:02:18.995Z,99.90
2019-06-08T06:04:51.575Z,99.90
2019-06-08T06:07:17.724Z,99.90
2019-06-08T06:09:46.976Z,99.90
2019-06-08T06:12:15.628Z,99.90
2019-06-08T06:14:44.967Z,99.90
2019-06-08T06:17:13.684Z,99.90
2019-06-08T06:19:42.994Z,99.90
2019-06-08T06:22:11.655Z,99.90
2019-06-08T06:24:41.711Z,99.90
2019-06-08T06:27:10.620Z,99.90
2019-06-08T06:29:39.086Z,99.90
2019-06-08T06:32:07.640Z,99.90
2019-06-08T06:34:36.163Z,99.90
2019-06-08T06:37:04.916Z,99.90
2019-06-08T06:39:33.703Z,99.90
2019-06-08T06:42:02.153Z,99.90
2019-06-08T06:44:30.643Z,99.90
2019-06-08T06:46:59.165Z,99.90
2019-06-08T06:49:27.712Z,99.90
2019-06-08T06:51:56.165Z,99.90
2019-06-08T06:54:24.727Z,99.90
2019-06-08T06:56:54.097Z,99.90
2019-06-08T06:59:23.091Z,99.90
2019-06-08T07:01:55.781Z,99.90
2019-06-08T07:04:22.397Z,99.90
2019-06-08T07:06:52.168Z,99.90
2019-06-08T07:09:20.951Z,99.90
2019-06-08T07:11:50.879Z,99.90
2019-06-08T07:14:19.558Z,99.90
2019-06-08T07:16:48.016Z,99.90
2019-06-08T07:19:16.563Z,99.90
2019-06-08T07:21:46.149Z,99.90
2019-06-08T07:24:14.732Z,99.90
2019-06-08T07:26:43.560Z,99.90
2019-06-08T07:29:12.050Z,99.90
2019-06-08T07:31:40.524Z,99.90
2019-06-08T07:34:08.980Z,99.90
2019-06-08T07:36:37.451Z,99.90
2019-06-08T07:39:07.728Z,99.90
2019-06-08T07:41:36.700Z,99.90
2019-06-08T07:44:05.231Z,99.90
2019-06-08T07:46:33.789Z,99.90
2019-06-08T07:49:02.316Z,99.90
2019-06-08T07:51:30.872Z,99.90
2019-06-08T07:53:59.907Z,99.90
2019-06-08T07:56:28.534Z,99.90
2019-06-08T07:58:57.224Z,99.90
2019-06-08T08:01:35.730Z,99.90
2019-06-08T08:03:56.450Z,99.90
2019-06-08T08:06:25.303Z,99.90
2019-06-08T08:08:54.803Z,99.90
2019-06-08T08:11:23.887Z,99.90
2019-06-08T08:13:53.215Z,99.90
2019-06-08T08:16:21.743Z,99.90
2019-06-08T08:18:51.083Z,99.90
2019-06-08T08:21:25.465Z,99.90
2019-06-08T08:23:50.655Z,99.90
2019-06-08T08:26:20.316Z,99.90
2019-06-08T08:28:51.756Z,99.90
2019-06-08T08:31:19.006Z,99.90
2019-06-08T08:33:49.770Z,99.90
2019-06-08T08:36:18.032Z,99.90
2019-06-08T08:38:50.252Z,99.90
2019-06-08T08:41:18.379Z,99.90
2019-06-08T08:43:48.500Z,99.90
2019-06-08T08:46:17.366Z,99.90
2019-06-08T08:48:48.231Z,99.90
2019-06-08T08:51:20.430Z,99.90
2019-06-08T08:53:48.185Z,99.90
2019-06-08T08:56:18.121Z,99.90
2019-06-08T08:58:47.787Z,99.90
2019-06-08T09:01:20.271Z,99.90
2019-06-08T09:03:48.193Z,99.90
2019-06-08T09:06:18.121Z,99.90
2019-06-08T09:08:48.546Z,99.90
2019-06-08T09:11:17.574Z,99.90
2019-06-08T09:13:48.713Z,99.90
2019-06-08T09:16:17.668Z,99.90
2019-06-08T09:18:47.982Z,99.90
2019-06-08T09:21:18.665Z,99.90
2019-06-08T09:23:48.639Z,99.90
2019-06-08T09:26:17.660Z,99.90
2019-06-08T09:28:46.255Z,99.90
2019-06-08T09:31:14.776Z,99.90
2019-06-08T09:33:53.239Z,99.90
2019-06-08T09:36:13.571Z,99.90
2019-06-08T09:38:42.123Z,99.90
2019-06-08T09:41:10.577Z,99.90
2019-06-08T09:43:39.132Z,99.90
2019-06-08T09:46:09.288Z,99.90
2019-06-08T09:48:38.306Z,99.90
2019-06-08T09:51:09.233Z,99.90
2019-06-08T09:53:41.188Z,99.90
2019-06-08T09:56:09.699Z,99.90
2019-06-08T09:58:39.135Z,99.90
2019-06-08T10:01:11.300Z,99.90
2019-06-08T10:03:39.244Z,99.10
2019-06-08T10:06:11.613Z,99.20
2019-06-08T10:08:38.784Z,97.80
2019-06-08T10:11:09.605Z,98.20
2019-06-08T10:13:39.171Z,97.00
2019-06-08T10:16:10.215Z,97.60
2019-06-08T10:18:38.653Z,98.70
2019-06-08T10:21:09.652Z,97.80
2019-06-08T10:23:38.574Z,96.30
2019-06-08T10:26:08.013Z,95.90
2019-06-08T10:28:38.858Z,95.50
2019-06-08T10:31:06.939Z,94.90
2019-06-08T10:33:40.277Z,94.70
2019-06-08T10:36:12.352Z,94.00
2019-06-08T10:38:38.421Z,93.60
2019-06-08T10:41:11.984Z,93.70
2019-06-08T10:43:38.584Z,91.80
2019-06-08T10:46:12.009Z,91.30
2019-06-08T10:48:37.890Z,91.90
2019-06-08T10:51:10.474Z,91.20
2019-06-08T10:53:46.554Z,90.30
2019-06-08T10:56:10.411Z,88.70
2019-06-08T10:58:38.973Z,86.70
2019-06-08T11:01:11.157Z,86.80
2019-06-08T11:03:38.805Z,87.80
2019-06-08T11:06:12.957Z,89.10
2019-06-08T11:08:38.993Z,86.10
2019-06-08T11:11:11.340Z,86.60
2019-06-08T11:13:38.083Z,86.60
2019-06-08T11:16:11.223Z,86.30
2019-06-08T11:18:36.955Z,84.80
2019-06-08T11:21:07.238Z,84.50
2019-06-08T11:23:38.464Z,86.60
2019-06-08T11:26:14.828Z,84.20
2019-06-08T11:28:38.175Z,82.70
2019-06-08T11:31:12.016Z,84.10
2019-06-08T11:33:38.763Z,83.60
2019-06-08T11:36:11.109Z,81.30
2019-06-08T11:38:38.249Z,79.10
2019-06-08T11:41:10.201Z,80.70
2019-06-08T11:43:38.156Z,80.60
2019-06-08T11:46:06.848Z,77.10
2019-06-08T11:48:39.182Z,74.90
2019-06-08T11:51:07.308Z,75.60
2019-06-08T11:53:38.304Z,75.60
2019-06-08T11:56:09.437Z,75.50
2019-06-08T11:58:38.542Z,73.60
2019-06-08T12:01:11.683Z,72.70
2019-06-08T12:03:38.919Z,73.40
2019-06-08T12:06:09.457Z,71.90
2019-06-08T12:08:38.179Z,74.20
2019-06-08T12:11:11.484Z,72.40
2019-06-08T12:13:37.395Z,69.00
2019-06-08T12:16:09.315Z,69.60
2019-06-08T12:18:40.101Z,69.80
2019-06-08T12:21:08.653Z,69.60
2019-06-08T12:23:36.636Z,72.00
2019-06-08T12:26:06.115Z,69.20
2019-06-08T12:28:34.759Z,69.00
2019-06-08T12:31:03.290Z,63.80
2019-06-08T12:33:31.772Z,61.60
2019-06-08T12:36:00.303Z,58.50
2019-06-08T12:38:33.491Z,56.00
2019-06-08T12:40:58.958Z,53.10
2019-06-08T12:43:28.396Z,54.30
2019-06-08T12:45:58.060Z,54.30
2019-06-08T12:48:28.733Z,55.10
2019-06-08T12:50:56.932Z,52.30
2019-06-08T12:53:25.379Z,49.00
2019-06-08T12:55:54.183Z,49.00
2019-06-08T12:58:22.639Z,48.50
2019-06-08T13:00:51.527Z,46.00
2019-06-08T13:03:20.104Z,45.10
2019-06-08T13:05:48.579Z,43.30
2019-06-08T13:08:20.049Z,40.50
2019-06-08T13:10:48.206Z,39.40
2019-06-08T13:13:23.538Z,39.00
2019-06-08T13:15:48.367Z,38.60
2019-06-08T13:18:19.867Z,38.90
2019-06-08T13:20:49.011Z,38.30
2019-06-08T13:23:19.393Z,37.50
2019-06-08T13:25:48.254Z,37.10
2019-06-08T13:28:22.439Z,36.50
2019-06-08T13:30:47.860Z,34.70
2019-06-08T13:33:16.616Z,35.80
2019-06-08T13:35:47.834Z,36.40
2019-06-08T13:38:15.348Z,38.70
2019-06-08T13:40:43.799Z,38.70
2019-06-08T13:43:13.302Z,38.60
2019-06-08T13:45:41.907Z,39.10
2019-06-08T13:48:10.379Z,40.20
2019-06-08T13:50:39.179Z,41.40
2019-06-08T13:53:10.501Z,42.60
2019-06-08T13:55:49.570Z,43.10
2019-06-08T13:58:08.247Z,43.00
2019-06-08T14:00:38.462Z,43.80
2019-06-08T14:03:08.579Z,41.90
2019-06-08T14:05:38.784Z,42.70
2019-06-08T14:08:10.613Z,44.10
2019-06-08T14:10:39.823Z,44.40
2019-06-08T14:13:08.349Z,44.90
2019-06-08T14:15:37.910Z,44.90
2019-06-08T14:18:08.889Z,45.90
2019-06-08T14:20:38.663Z,46.30
2019-06-08T14:23:08.940Z,47.20
2019-06-08T14:25:47.911Z,47.70
2019-06-08T14:28:08.428Z,48.10
2019-06-08T14:30:37.781Z,47.90
2019-06-08T14:33:08.352Z,47.30
2019-06-08T14:35:36.982Z,47.60
2019-06-08T14:38:05.929Z,47.10
2019-06-08T14:40:34.919Z,47.20
2019-06-08T14:43:03.374Z,47.50
2019-06-08T14:45:31.898Z,47.30
2019-06-08T14:48:00.376Z,47.00
2019-06-08T14:50:30.697Z,48.00
2019-06-08T14:52:59.331Z,47.40
2019-06-08T14:55:33.205Z,46.80
2019-06-08T14:57:58.240Z,48.00
2019-06-08T15:00:27.749Z,47.60
2019-06-08T15:02:59.031Z,46.60
2019-06-08T15:05:30.534Z,47.50
2019-06-08T15:07:58.221Z,47.40
2019-06-08T15:10:28.503Z,46.70
2019-06-08T15:12:57.914Z,46.60
2019-06-08T15:15:30.258Z,47.50
2019-06-08T15:17:58.198Z,46.80
2019-06-08T15:20:28.638Z,47.60
2019-06-08T15:22:57.875Z,47.30
2019-06-08T15:25:27.402Z,48.40
2019-06-08T15:27:58.176Z,47.30
2019-06-08T15:30:29.478Z,47.40
2019-06-08T15:32:58.696Z,46.90
2019-06-08T15:35:27.600Z,47.50
2019-06-08T15:37:58.498Z,47.30
2019-06-08T15:40:27.686Z,47.30
2019-06-08T15:42:58.517Z,48.10
2019-06-08T15:45:29.395Z,47.00
2019-06-08T15:47:58.663Z,47.30
2019-06-08T15:50:28.412Z,48.00
2019-06-08T15:52:59.845Z,48.10
2019-06-08T15:55:29.850Z,48.50
2019-06-08T15:57:58.458Z,48.20
2019-06-08T16:00:29.692Z,48.10
2019-06-08T16:02:58.207Z,47.20
2019-06-08T16:05:27.722Z,47.60
2019-06-08T16:07:56.351Z,47.50
2019-06-08T16:10:26.024Z,46.90
2019-06-08T16:12:54.911Z,47.00
2019-06-08T16:15:24.726Z,47.30
2019-06-08T16:17:53.568Z,47.80
2019-06-08T16:20:22.523Z,47.20
2019-06-08T16:22:51.081Z,46.80
2019-06-08T16:25:19.603Z,47.40
2019-06-08T16:27:48.226Z,47.60
2019-06-08T16:30:16.883Z,47.40
2019-06-08T16:32:45.359Z,47.70
2019-06-08T16:35:13.879Z,48.40
2019-06-08T16:37:42.346Z,48.40
2019-06-08T16:40:10.939Z,48.40
2019-06-08T16:42:39.771Z,48.20
2019-06-08T16:45:08.841Z,48.80
2019-06-08T16:47:37.388Z,48.90
2019-06-08T16:50:07.654Z,48.80
2019-06-08T16:52:36.667Z,49.20
2019-06-08T16:55:08.531Z,49.40
2019-06-08T16:57:39.469Z,49.20
2019-06-08T17:02:39.311Z,49.80
2019-06-08T17:05:08.529Z,50.40
2019-06-08T17:07:37.759Z,50.30
2019-06-08T17:10:08.296Z,49.30
2019-06-08T17:12:37.075Z,49.50
2019-06-08T17:15:07.476Z,50.20
2019-06-08T17:17:36.530Z,51.10
2019-06-08T17:20:07.479Z,51.00
2019-06-08T17:22:36.774Z,51.10
2019-06-08T17:25:08.317Z,52.10
2019-06-08T17:27:36.868Z,51.90
2019-06-08T17:30:09.452Z,51.70
2019-06-08T17:32:38.537Z,52.30
2019-06-08T17:35:10.372Z,51.60
2019-06-08T17:37:40.101Z,52.00
2019-06-08T17:40:08.986Z,51.90
2019-06-08T17:42:37.695Z,51.60
2019-06-08T17:45:07.647Z,51.60
2019-06-08T17:47:36.403Z,51.90
2019-06-08T17:50:07.095Z,52.00
2019-06-08T17:52:36.905Z,52.00
2019-06-08T17:55:06.435Z,52.70
2019-06-08T17:57:44.522Z,52.90
2019-06-08T18:00:09.623Z,52.90
2019-06-08T18:02:42.027Z,53.00
2019-06-08T18:05:09.836Z,53.60
2019-06-08T18:07:40.191Z,53.60
2019-06-08T18:10:09.944Z,53.60
2019-06-08T18:12:40.775Z,53.40
2019-06-08T18:15:09.128Z,53.80
2019-06-08T18:17:40.791Z,53.40
2019-06-08T18:20:12.424Z,53.50
2019-06-08T18:22:42.821Z,54.20
2019-06-08T18:25:11.647Z,54.60
2019-06-08T18:27:42.163Z,54.20
2019-06-08T18:30:12.029Z,54.20
2019-06-08T18:32:42.443Z,54.20
2019-06-08T18:35:11.795Z,54.70
2019-06-08T18:37:41.329Z,54.30
2019-06-08T18:40:13.662Z,53.70
2019-06-08T18:42:43.140Z,54.30
2019-06-08T18:45:14.826Z,54.60
2019-06-08T18:47:43.841Z,54.40
2019-06-08T18:50:12.647Z,54.90
2019-06-08T18:52:43.788Z,55.20
2019-06-08T18:55:12.622Z,55.30
2019-06-08T18:57:42.598Z,55.60
2019-06-08T19:00:12.025Z,56.40
2019-06-08T19:02:43.263Z,56.00
2019-06-08T19:05:10.995Z,56.70
2019-06-08T19:07:41.230Z,55.90
2019-06-08T19:10:10.143Z,55.70
2019-06-08T19:12:41.100Z,55.80
2019-06-08T19:15:11.431Z,56.20
2019-06-08T19:17:43.627Z,56.60
2019-06-08T19:20:09.970Z,57.20
2019-06-08T19:22:41.705Z,57.00
2019-06-08T19:25:08.771Z,57.80
2019-06-08T19:27:43.916Z,58.60
2019-06-08T19:30:07.498Z,58.20
2019-06-08T19:32:38.916Z,58.60
2019-06-08T19:35:07.349Z,58.70
2019-06-08T19:37:36.291Z,58.90
2019-06-08T19:40:07.544Z,59.10
2019-06-08T19:42:44.667Z,59.60
2019-06-08T19:45:08.555Z,59.60
2019-06-08T19:47:36.527Z,59.70
2019-06-08T19:50:07.841Z,60.10
2019-06-08T19:52:39.960Z,60.00
2019-06-08T19:55:08.082Z,60.60
2019-06-08T19:57:36.627Z,61.10
2019-06-08T20:00:07.490Z,61.40
2019-06-08T20:02:36.252Z,62.10
2019-06-08T20:05:07.638Z,63.00
2019-06-08T20:07:37.886Z,64.10
2019-06-08T20:10:08.062Z,64.70
2019-06-08T20:12:37.296Z,65.80
2019-06-08T20:15:08.555Z,66.50
2019-06-08T20:17:37.378Z,67.60
2019-06-08T20:20:10.649Z,68.90
2019-06-08T20:22:38.135Z,69.40
2019-06-08T20:25:10.494Z,69.20
2019-06-08T20:27:38.044Z,69.60
2019-06-08T20:30:09.519Z,70.50
2019-06-08T20:32:37.856Z,71.70
2019-06-08T20:35:08.102Z,72.40
2019-06-08T20:37:37.703Z,73.00
2019-06-08T20:40:13.631Z,73.20
2019-06-08T20:42:38.068Z,74.20
2019-06-08T20:45:08.157Z,75.30
2019-06-08T20:47:39.159Z,75.90
2019-06-08T20:50:07.815Z,76.20
2019-06-08T20:52:37.764Z,76.80
2019-06-08T20:55:07.953Z,77.00
2019-06-08T20:57:36.498Z,78.20
2019-06-08T21:00:11.791Z,79.40
2019-06-08T21:02:39.481Z,80.30
2019-06-08T21:05:08.167Z,81.60
2019-06-08T21:07:36.694Z,82.30
2019-06-08T21:10:08.336Z,84.00
2019-06-08T21:12:37.983Z,85.40
2019-06-08T21:15:07.225Z,87.30
2019-06-08T21:17:38.232Z,88.30
2019-06-08T21:20:08.564Z,89.50
2019-06-08T21:22:36.483Z,90.80
2019-06-08T21:25:08.731Z,91.70
2019-06-08T21:27:38.491Z,92.70
2019-06-08T21:30:20.429Z,93.70
2019-06-08T21:32:41.491Z,94.80
2019-06-08T21:35:10.111Z,96.10
2019-06-08T21:37:38.562Z,97.30
2019-06-08T21:40:10.103Z,98.70
2019-06-08T21:42:38.914Z,99.90
2019-06-08T21:45:09.718Z,99.90
2019-06-08T21:47:37.985Z,99.90
2019-06-08T21:50:08.020Z,99.90
2019-06-08T21:52:36.862Z,99.90
2019-06-08T21:55:07.352Z,99.90
2019-06-08T21:57:37.106Z,99.90
2019-06-08T22:00:22.844Z,99.90
2019-06-08T22:02:39.034Z,99.90
2019-06-08T22:05:08.437Z,99.90
2019-06-08T22:07:37.778Z,99.90
2019-06-08T22:10:08.691Z,99.90
2019-06-08T22:12:40.239Z,99.90
2019-06-08T22:15:07.829Z,99.90
2019-06-08T22:17:38.326Z,99.90
2019-06-08T22:20:08.148Z,99.90
2019-06-08T22:22:37.866Z,99.90
2019-06-08T22:25:08.321Z,99.90
2019-06-08T22:27:38.141Z,99.90
2019-06-08T22:30:13.310Z,99.90
2019-06-08T22:32:38.582Z,99.90
2019-06-08T22:35:08.121Z,99.90
2019-06-08T22:37:37.988Z,99.90
2019-06-08T22:40:08.180Z,99.90
2019-06-08T22:42:37.753Z,99.90
2019-06-08T22:45:08.384Z,99.90
2019-06-08T22:47:38.808Z,99.90
2019-06-08T22:50:07.995Z,99.90
2019-06-08T22:52:37.500Z,99.90
2019-06-08T22:55:10.905Z,99.90
2019-06-08T22:57:38.087Z,99.90
2019-06-08T23:00:16.818Z,99.90
2019-06-08T23:02:38.575Z,99.90
2019-06-08T23:05:09.010Z,99.90
2019-06-08T23:07:38.008Z,99.90
2019-06-08T23:10:09.025Z,99.90
2019-06-08T23:12:38.311Z,99.90
2019-06-08T23:15:10.574Z,99.90
2019-06-08T23:17:39.169Z,99.90
2019-06-08T23:20:09.555Z,99.90
2019-06-08T23:22:38.686Z,99.90
2019-06-08T23:25:09.558Z,99.90
2019-06-08T23:27:38.502Z,99.90
2019-06-08T23:30:10.057Z,99.90
2019-06-08T23:32:39.341Z,99.90
2019-06-08T23:35:09.603Z,99.90
2019-06-08T23:37:38.681Z,99.90
2019-06-08T23:40:08.804Z,99.90
2019-06-08T23:42:38.429Z,99.90
2019-06-08T23:45:10.326Z,99.90
2019-06-08T23:47:38.500Z,99.90
2019-06-08T23:50:10.965Z,99.90
2019-06-08T23:52:38.399Z,99.90
2019-06-08T23:55:10.481Z,99.90
2019-06-08T23:57:38.047Z,99.90
